Time,TemperatureF,DewpointF,PressureIn,WindDirection,WindDirectionDegrees,WindSpeedMPH,WindSpeedGustMPH,Humidity,HourlyPrecipIn,Conditions,Clouds,dailyrainin,SolarRadiationWatts/m^2,SoftwareType,DateUTC
2013-02-18 00:09:00,45.6,37.0,29.97,SE,137,0.0,-999.0,71,-99.99,,,0.00,0,weatherlink.com 1.10,2013-02-18 06:09:00,
2013-02-18 00:24:00,45.5,37.0,29.97,SE,137,0.0,-999.0,71,-99.99,,,0.00,0,weatherlink.com 1.10,2013-02-18 06:24:00,
2013-02-18 00:39:00,45.3,37.0,29.97,SE,137,0.0,-999.0,72,-99.99,,,0.00,0,weatherlink.com 1.10,2013-02-18 06:39:00,
2013-02-18 00:54:00,44.7,37.0,29.96,SE,137,0.0,-999.0,74,-99.99,,,0.00,0,weatherlink.com 1.10,2013-02-18 06:54:00,
2013-02-18 01:09:00,45.1,37.0,29.96,SE,137,0.0,-999.0,73,-99.99,,,0.00,0,weatherlink.com 1.10,2013-02-18 07:09:00,
2013-02-18 01:24:00,45.6,37.0,29.95,SE,137,0.0,-999.0,72,-99.99,,,0.00,0,weatherlink.com 1.10,2013-02-18 07:24:00,
2013-02-18 01:39:00,45.6,37.0,29.95,SE,137,0.0,-999.0,72,-99.99,,,0.00,0,weatherlink.com 1.10,2013-02-18 07:39:00,
2013-02-18 01:54:00,46.6,37.0,29.95,SE,137,0.0,-999.0,69,-99.99,,,0.00,0,weatherlink.com 1.10,2013-02-18 07:54:00,
2013-02-18 02:09:00,48.1,38.0,29.95,SE,144,1.0,-999.0,67,-99.99,,,0.00,0,weatherlink.com 1.10,2013-02-18 08:09:00,
2013-02-18 02:25:00,49.0,38.0,29.94,SE,146,0.0,-999.0,65,-99.99,,,0.00,0,weatherlink.com 1.10,2013-02-18 08:25:00,
2013-02-18 02:39:00,50.3,38.0,29.95,South,173,0.0,-999.0,64,-99.99,,,0.00,0,weatherlink.com 1.10,2013-02-18 08:39:00,
2013-02-18 02:54:00,51.5,39.0,29.94,SSW,211,0.0,-999.0,62,-99.99,,,0.00,0,weatherlink.com 1.10,2013-02-18 08:54:00,
2013-02-18 03:09:00,52.0,39.0,29.93,SSE,164,0.0,-999.0,61,-99.99,,,0.00,0,weatherlink.com 1.10,2013-02-18 09:09:00,
2013-02-18 03:24:00,51.9,39.0,29.93,SSE,163,7.0,-999.0,62,-99.99,,,0.00,0,weatherlink.com 1.10,2013-02-18 09:24:00,
2013-02-18 03:39:00,52.2,39.0,29.93,South,191,3.0,-999.0,62,-99.99,,,0.00,0,weatherlink.com 1.10,2013-02-18 09:39:00,
2013-02-18 03:54:00,52.3,40.0,29.93,South,171,4.0,-999.0,63,-99.99,,,0.00,0,weatherlink.com 1.10,2013-02-18 09:54:00,
2013-02-18 04:09:00,52.7,40.0,29.93,South,173,9.0,-999.0,63,-99.99,,,0.00,0,weatherlink.com 1.10,2013-02-18 10:09:00,
2013-02-18 04:25:00,52.6,40.0,29.93,South,179,6.0,-999.0,63,-99.99,,,0.00,0,weatherlink.com 1.10,2013-02-18 10:25:00,
2013-02-18 04:39:00,52.6,41.0,29.93,SSW,200,5.0,-999.0,64,-99.99,,,0.00,0,weatherlink.com 1.10,2013-02-18 10:39:00,
2013-02-18 05:10:00,52.2,41.0,29.93,South,189,3.0,-999.0,66,-99.99,,,0.00,0,weatherlink.com 1.10,2013-02-18 11:10:00,
2013-02-18 05:24:00,51.9,41.0,29.93,SSE,161,5.0,-999.0,67,-99.99,,,0.00,0,weatherlink.com 1.10,2013-02-18 11:24:00,
2013-02-18 05:54:00,52.1,43.0,29.91,South,181,8.0,-999.0,70,-99.99,,,0.00,0,weatherlink.com 1.10,2013-02-18 11:54:00,
2013-02-18 06:10:00,52.4,43.0,29.91,South,186,14.0,-999.0,71,-99.99,,,0.00,0,weatherlink.com 1.10,2013-02-18 12:10:00,
2013-02-18 06:25:00,52.3,44.0,29.90,South,184,6.0,-999.0,72,-99.99,,,0.00,0,weatherlink.com 1.10,2013-02-18 12:25:00,
2013-02-18 06:40:00,52.2,44.0,29.90,South,188,7.0,-999.0,73,-99.99,,,0.00,0,weatherlink.com 1.10,2013-02-18 12:40:00,
2013-02-18 06:55:00,52.1,44.0,29.89,South,170,7.0,-999.0,74,-99.99,,,0.00,0,weatherlink.com 1.10,2013-02-18 12:55:00,
2013-02-18 07:10:00,52.0,44.0,29.89,SSE,163,9.0,-999.0,74,-99.99,,,0.00,5,weatherlink.com 1.10,2013-02-18 13:10:00,
2013-02-18 07:25:00,51.9,44.0,29.90,South,176,7.0,-999.0,75,-99.99,,,0.00,7,weatherlink.com 1.10,2013-02-18 13:25:00,
2013-02-18 07:40:00,51.9,45.0,29.89,South,178,10.0,-999.0,76,-99.99,,,0.00,14,weatherlink.com 1.10,2013-02-18 13:40:00,
2013-02-18 07:56:00,51.9,45.0,29.88,SSE,148,5.0,-999.0,76,-99.99,,,0.00,19,weatherlink.com 1.10,2013-02-18 13:56:00,
2013-02-18 08:10:00,51.9,45.0,29.88,South,178,8.0,-999.0,77,-99.99,,,0.00,19,weatherlink.com 1.10,2013-02-18 14:10:00,
2013-02-18 08:25:00,52.2,45.0,29.89,South,172,6.0,-999.0,77,-99.99,,,0.00,19,weatherlink.com 1.10,2013-02-18 14:25:00,
2013-02-18 08:40:00,52.4,45.0,29.88,South,169,8.0,-999.0,77,-99.99,,,0.00,32,weatherlink.com 1.10,2013-02-18 14:40:00,
2013-02-18 08:55:00,52.5,45.0,29.88,SSE,167,6.0,-999.0,77,-99.99,,,0.00,40,weatherlink.com 1.10,2013-02-18 14:55:00,
2013-02-18 09:11:00,52.7,46.0,29.88,South,169,8.0,-999.0,77,-99.99,,,0.00,42,weatherlink.com 1.10,2013-02-18 15:11:00,
2013-02-18 09:26:00,52.9,46.0,29.87,South,171,11.0,-999.0,77,-99.99,,,0.00,90,weatherlink.com 1.10,2013-02-18 15:26:00,
2013-02-18 09:40:00,53.4,46.0,29.87,South,187,13.0,-999.0,77,-99.99,,,0.00,79,weatherlink.com 1.10,2013-02-18 15:40:00,
2013-02-18 09:56:00,53.6,47.0,29.86,South,169,4.0,-999.0,77,-99.99,,,0.00,53,weatherlink.com 1.10,2013-02-18 15:56:00,
2013-02-18 10:11:00,53.5,47.0,29.86,SSE,167,4.0,-999.0,78,-99.99,,,0.00,56,weatherlink.com 1.10,2013-02-18 16:11:00,
2013-02-18 10:25:00,53.4,47.0,29.87,SSW,195,1.0,-999.0,78,-99.99,,,0.00,69,weatherlink.com 1.10,2013-02-18 16:25:00,
2013-02-18 10:41:00,53.5,47.0,29.86,SSW,193,14.0,-999.0,78,-99.99,,,0.00,83,weatherlink.com 1.10,2013-02-18 16:41:00,
2013-02-18 10:55:00,53.8,47.0,29.86,SSE,163,11.0,-999.0,78,-99.99,,,0.00,40,weatherlink.com 1.10,2013-02-18 16:55:00,
2013-02-18 11:11:00,53.6,47.0,29.86,South,170,9.0,-999.0,79,-99.99,,,0.00,35,weatherlink.com 1.10,2013-02-18 17:11:00,
2013-02-18 11:25:00,53.5,47.0,29.85,South,190,7.0,-999.0,79,-99.99,,,0.00,30,weatherlink.com 1.10,2013-02-18 17:25:00,
2013-02-18 11:40:00,53.4,47.0,29.84,SSW,199,9.0,-999.0,80,-99.99,,,0.00,54,weatherlink.com 1.10,2013-02-18 17:40:00,
2013-02-18 11:56:00,53.5,48.0,29.83,South,188,9.0,-999.0,80,-99.99,,,0.00,51,weatherlink.com 1.10,2013-02-18 17:56:00,
2013-02-18 12:11:00,53.4,48.0,29.82,SSW,209,0.0,-999.0,81,-99.99,,,0.00,33,weatherlink.com 1.10,2013-02-18 18:11:00,
2013-02-18 12:26:00,53.4,48.0,29.81,South,171,1.0,-999.0,81,-99.99,,,0.00,44,weatherlink.com 1.10,2013-02-18 18:26:00,
2013-02-18 12:41:00,53.3,48.0,29.80,SSE,158,10.0,-999.0,81,-99.99,,,0.00,33,weatherlink.com 1.10,2013-02-18 18:41:00,
2013-02-18 12:56:00,53.2,48.0,29.79,South,180,3.0,-999.0,82,-99.99,,,0.00,30,weatherlink.com 1.10,2013-02-18 18:56:00,
2013-02-18 13:11:00,53.1,48.0,29.78,SSE,161,5.0,-999.0,82,-99.99,,,0.00,33,weatherlink.com 1.10,2013-02-18 19:11:00,
2013-02-18 13:26:00,53.1,48.0,29.76,SSE,164,12.0,-999.0,83,-99.99,,,0.00,40,weatherlink.com 1.10,2013-02-18 19:26:00,
2013-02-18 13:41:00,52.9,48.0,29.75,SSE,167,7.0,-999.0,83,-99.99,,,0.00,28,weatherlink.com 1.10,2013-02-18 19:41:00,
2013-02-18 13:56:00,52.8,48.0,29.74,South,175,9.0,-999.0,84,-99.99,,,0.00,37,weatherlink.com 1.10,2013-02-18 19:56:00,
2013-02-18 14:26:00,53.0,49.0,29.73,SSE,156,9.0,-999.0,85,-99.99,,,0.00,58,weatherlink.com 1.10,2013-02-18 20:26:00,
2013-02-18 14:41:00,53.3,49.0,29.72,SSE,165,5.0,-999.0,86,-99.99,,,0.00,33,weatherlink.com 1.10,2013-02-18 20:41:00,
2013-02-18 14:56:00,53.2,50.0,29.71,SSE,159,6.0,-999.0,87,-99.99,,,0.00,35,weatherlink.com 1.10,2013-02-18 20:56:00,
2013-02-18 15:11:00,53.1,50.0,29.71,SSE,148,4.0,-999.0,89,-99.99,,,0.00,16,weatherlink.com 1.10,2013-02-18 21:11:00,
2013-02-18 15:26:00,52.9,50.0,29.71,SSE,152,2.0,-999.0,90,-99.99,,,0.00,14,weatherlink.com 1.10,2013-02-18 21:26:00,
2013-02-18 15:41:00,52.8,50.0,29.70,SSE,153,0.0,-999.0,90,-99.99,,,0.00,19,weatherlink.com 1.10,2013-02-18 21:41:00,
2013-02-18 15:56:00,52.7,50.0,29.70,SSE,147,0.0,-999.0,90,-99.99,,,0.00,5,weatherlink.com 1.10,2013-02-18 21:56:00,
2013-02-18 16:11:00,52.5,50.0,29.72,SSE,152,0.0,-999.0,91,-99.99,,,0.00,0,weatherlink.com 1.10,2013-02-18 22:11:00,
2013-02-18 16:26:00,52.4,50.0,29.75,WNW,286,7.0,-999.0,92,-99.99,,,0.15,0,weatherlink.com 1.10,2013-02-18 22:26:00,
2013-02-18 16:41:00,51.2,48.0,29.72,SSW,205,6.0,-999.0,89,-99.99,,,0.20,0,weatherlink.com 1.10,2013-02-18 22:41:00,
2013-02-18 16:56:00,50.1,47.0,29.73,SW,217,5.0,-999.0,90,-99.99,,,0.20,16,weatherlink.com 1.10,2013-02-18 22:56:00,
2013-02-18 17:11:00,50.0,47.0,29.74,SSW,211,6.0,-999.0,89,-99.99,,,0.20,67,weatherlink.com 1.10,2013-02-18 23:11:00,
2013-02-18 17:26:00,50.4,48.0,29.74,WSW,252,2.0,-999.0,90,-99.99,,,0.20,56,weatherlink.com 1.10,2013-02-18 23:26:00,
2013-02-18 17:41:00,50.6,48.0,29.76,WNW,289,0.0,-999.0,90,-99.99,,,0.20,12,weatherlink.com 1.10,2013-02-18 23:41:00,
2013-02-18 17:56:00,50.7,47.0,29.77,WNW,296,14.0,-999.0,86,-99.99,,,0.20,0,weatherlink.com 1.10,2013-02-18 23:56:00,
2013-02-18 18:11:00,50.9,45.0,29.81,WNW,286,21.0,-999.0,79,-99.99,,,0.20,0,weatherlink.com 1.10,2013-02-19 00:11:00,
2013-02-18 18:26:00,49.5,42.0,29.84,WNW,298,16.0,-999.0,76,-99.99,,,0.20,0,weatherlink.com 1.10,2013-02-19 00:26:00,
2013-02-18 18:41:00,47.9,41.0,29.86,WNW,296,22.0,-999.0,76,-99.99,,,0.20,0,weatherlink.com 1.10,2013-02-19 00:41:00,
2013-02-18 18:56:00,45.9,39.0,29.88,WNW,302,19.0,-999.0,78,-99.99,,,0.20,0,weatherlink.com 1.10,2013-02-19 00:56:00,
2013-02-18 19:11:00,45.1,39.0,29.89,WNW,301,15.0,-999.0,79,-99.99,,,0.20,0,weatherlink.com 1.10,2013-02-19 01:11:00,
2013-02-18 19:26:00,44.8,39.0,29.91,WNW,286,23.0,-999.0,79,-99.99,,,0.20,0,weatherlink.com 1.10,2013-02-19 01:26:00,
2013-02-18 19:41:00,44.6,37.0,29.92,WNW,297,9.0,-999.0,76,-99.99,,,0.20,0,weatherlink.com 1.10,2013-02-19 01:41:00,
2013-02-18 19:57:00,44.3,38.0,29.94,NW,313,8.0,-999.0,77,-99.99,,,0.20,0,weatherlink.com 1.10,2013-02-19 01:57:00,
2013-02-18 20:12:00,44.2,37.0,29.95,NW,323,11.0,-999.0,76,-99.99,,,0.20,0,weatherlink.com 1.10,2013-02-19 02:12:00,
2013-02-18 20:26:00,44.3,37.0,29.95,NW,311,9.0,-999.0,75,-99.99,,,0.20,0,weatherlink.com 1.10,2013-02-19 02:26:00,
2013-02-18 20:41:00,43.8,36.0,29.96,NW,319,9.0,-999.0,75,-99.99,,,0.20,0,weatherlink.com 1.10,2013-02-19 02:41:00,
2013-02-18 20:57:00,43.4,36.0,29.97,NW,309,9.0,-999.0,76,-99.99,,,0.20,0,weatherlink.com 1.10,2013-02-19 02:57:00,
2013-02-18 21:12:00,43.5,37.0,29.98,WNW,300,5.0,-999.0,77,-99.99,,,0.20,0,weatherlink.com 1.10,2013-02-19 03:12:00,
2013-02-18 21:27:00,42.8,35.0,29.98,NW,314,19.0,-999.0,74,-99.99,,,0.20,0,weatherlink.com 1.10,2013-02-19 03:27:00,
2013-02-18 21:42:00,41.5,34.0,30.01,NW,323,30.0,-999.0,75,-99.99,,,0.20,0,weatherlink.com 1.10,2013-02-19 03:42:00,
2013-02-18 21:57:00,41.2,34.0,30.02,NW,321,9.0,-999.0,76,-99.99,,,0.20,0,weatherlink.com 1.10,2013-02-19 03:57:00,
2013-02-18 22:12:00,41.1,34.0,30.03,NW,310,15.0,-999.0,75,-99.99,,,0.20,0,weatherlink.com 1.10,2013-02-19 04:12:00,
2013-02-18 22:27:00,40.9,33.0,30.04,NW,319,25.0,-999.0,74,-99.99,,,0.20,0,weatherlink.com 1.10,2013-02-19 04:27:00,
2013-02-18 22:42:00,40.3,32.0,30.05,NNW,330,18.0,-999.0,71,-99.99,,,0.20,0,weatherlink.com 1.10,2013-02-19 04:42:00,
2013-02-18 22:57:00,39.8,32.0,30.06,NW,305,15.0,-999.0,73,-99.99,,,0.20,0,weatherlink.com 1.10,2013-02-19 04:57:00,
2013-02-18 23:12:00,39.3,32.0,30.08,NW,310,11.0,-999.0,74,-99.99,,,0.20,0,weatherlink.com 1.10,2013-02-19 05:12:00,
2013-02-18 23:27:00,38.9,31.0,30.09,NW,316,18.0,-999.0,74,-99.99,,,0.20,0,weatherlink.com 1.10,2013-02-19 05:27:00,
2013-02-18 23:43:00,38.5,30.0,30.09,NW,309,23.0,-999.0,72,-99.99,,,0.20,0,weatherlink.com 1.10,2013-02-19 05:43:00,
2013-02-18 23:57:00,38.0,30.0,30.10,NW,311,19.0,-999.0,73,-99.99,,,0.20,0,weatherlink.com 1.10,2013-02-19 05:57:00,